SCC: Daytona Test practice five times

Pos Num Class ClsP Team Time Gap To 1st Speed --- --- ----- ---- ------------------------------ ---------- ------- ------- ------- 1. 55 GS 1 Hyper Sport 2:01.546 ...

Pos Num Class ClsP Team                                 Time     Gap  To 1st   Speed
--- --- ----- ---- ------------------------------ ---------- ------- ------- -------
 1.  55 GS    1    Hyper Sport                      2:01.546                 105.442
 2.  59 GS    2    Rehagen Racing                   2:02.469   0.923   0.923 104.647
 3.  38 GS    3    BGB Motorsports                  2:02.590   0.121   1.044 104.544
 4.  17 GS    4    Team Centurion                   2:02.883   0.293   1.337 104.294
 5.  83 GS    5    BGB Motorsports                  2:03.029   0.146   1.483 104.171
 6.   6 GS    6    Blackforest Motorsports          2:03.033   0.004   1.487 104.167
 7. 154 GS    7    Jim Click Racing                 2:03.130   0.097   1.584 104.085
 8.  25 GS    8    Fiorano/C-MAX Racing             2:03.182   0.052   1.636 104.041
 9.   3 GS    9    Blackforest Motorsports          2:03.560   0.378   2.014 103.723
10.  71 GS    10   Synergy Racing                   2:03.860   0.300   2.314 103.472
11.  09 GS    11   Automatic Racing                 2:04.045   0.185   2.499 103.317
12.  79 GS    12   Kinetic Motorsports              2:04.116   0.071   2.570 103.258
13.  80 GS    13   Kinetic Motorsports              2:04.460   0.344   2.914 102.973
14.  99 GS    14   Automatic Racing                 2:04.567   0.107   3.021 102.884
15.  54 GS    15   Hyper Sport                      2:04.734   0.167   3.188 102.747
16.  87 GS    16   LNS Motorsport                   2:04.820   0.086   3.274 102.676
17.  88 GS    17   LNS Motorsport                   2:05.144   0.324   3.598 102.410
18.  78 GS    18   Kinetic Motorsports              2:05.445   0.301   3.899 102.164
19.  07 GS    19   Cardiosport Racing               2:05.454   0.009   3.908 102.157
20.  61 GS    20   Horsepower Ranch                 2:05.456   0.002   3.910 102.155
21.  46 GS    21   Fall-Line Motorsports            2:05.763   0.307   4.217 101.906
22.  28 GS    22   Fall-Line Motorsports            2:05.836   0.073   4.290 101.847
23.  44 GS    23   ASC Motorsports                  2:05.914   0.078   4.368 101.784
24.  52 GS    24   Rehagen Racing                   2:06.216   0.302   4.670 101.540
25.  41 GS    25   TRG                              2:06.242   0.026   4.696 101.519
26.  90 GS    26   Automatic Racing                 2:06.469   0.227   4.923 101.337
27.  11 GS    27   Southwest Racers Group           2:06.493   0.024   4.947 101.318
28.  10 GS    28   Spirit of Daytona Racing         2:06.513   0.020   4.967 101.302
29.  40 GS    29   TRG                              2:08.090   1.577   6.544 100.055
30.  39 GS    30   TRG                              2:08.182   0.092   6.636  99.983
31.  89 GS    31   LNS Motorsport                   2:09.180   0.998   7.634  99.210
32.  42 GS    32   TRG                              2:09.793   0.613   8.247  98.742
33.  43 GS    33   ASC Motorsports                  2:10.185   0.392   8.639  98.445
34.  32 ST    1    i-MOTO Racing                    2:10.724   0.539   9.178  98.039
35.  76 ST    2    Kensai Racing                    2:10.947   0.223   9.401  97.872
36.  75 ST    3    Kensai Racing                    2:11.107   0.160   9.561  97.752
37.  50 GS    34   Eastern Competition Promotorsp   2:11.565   0.458  10.019  97.412
38. 126 ST    4    Fountain Motorsports             2:11.597   0.032  10.051  97.388
39.  31 ST    5    i-MOTO Racing                    2:11.756   0.159  10.210  97.271
40.  74 ST    6    Kensai Racing                    2:12.007   0.251  10.461  97.086
41.  62 ST    7    Roar Racing                      2:13.086   1.079  11.540  96.299
42.  86 ST    8    Classic BMW - Plano              2:13.169   0.083  11.623  96.239
43.  24 ST    9    V-Pack Motorsport                2:13.539   0.370  11.993  95.972
44. 121 ST    10   GT Racing                        2:15.079   1.540  13.533  94.878
45. 151 ST    11   Competition Marketing Motorspo   2:15.296   0.217  13.750  94.726
46. 118 ST    12   Rotary Power Motorsports         2:15.678   0.382  14.132  94.459
47.  12 ST    13   Southwest Racers Group           2:16.112   0.434  14.566  94.158
48.  34 ST    14   Whatever Racing                  2:17.199   1.087  15.653  93.412
49. 131 ST    15   GT Racing                        2:17.274   0.075  15.728  93.361
50. 138 ST    16   GS Motorsport                    2:17.436   0.162  15.890  93.251
51.  02 ST    17   Blackforest Motorsports          2:17.911   0.475  16.365  92.929
52.  48 ST    18   Team Cobalt California           2:18.098   0.187  16.552  92.804
53.  58 ST    19   BSI Racing                       2:18.434   0.336  16.888  92.578
54.  98 ST    20   Team Cobalt California           2:18.954   0.520  17.408  92.232
55.  63 ST    21   Roar Racing                      2:18.966   0.012  17.420  92.224
56.  56 ST    22   BSI Racing                       2:19.414   0.448  17.868  91.928
57.  26 GS    35   Fiorano/C-MAX Racing              No Time
58.   2 GS    36   Blackforest Motorsports           No Time
59.   4 GS    37   Blackforest Motorsports           No Time
60.   5 GS    38   Blackforest Motorsports           No Time
61.   9 GS    39   Spirit of Daytona Racing          No Time
62.  18 GS    40   Race Prep Motorsports             No Time
63.  60 GS    41   Horsepower Ranch                  No Time
64.  72 GS    42   BGB Motorsports                   No Time
65.  91 GS    43   Automatic Racing                  No Time
66.  14 ST    23   MY Motorsports                    No Time
67.  23 ST    24   MY Motorsports                    No Time
68.  85 ST    25   Classic BMW - Plano               No Time
69. 125 ST    26   Fountain Motorsports              No Time

Write a comment
Show comments
About this article
Series Grand-Am
Drivers Jim Click
Teams Kinetic Motorsports , Rehagen Racing , Automatic Racing , Fall-Line Motorsports